Time,TemperatureF,DewpointF,PressureIn,WindDirection,WindDirectionDegrees,WindSpeedMPH,WindSpeedGustMPH,Humidity,HourlyPrecipIn,Conditions,Clouds,dailyrainin,SolarRadiationWatts/m^2,SoftwareType,DateUTC
2013-07-03 00:03:00,84.0,52.0,-100.00,NE,40,6.0,32.0,33,0.00,,,0.15,1.000000,,2013-07-03 07:03:00,
2013-07-03 00:39:00,87.0,48.0,-100.00,ENE,65,10.0,23.0,26,0.00,,,0.15,1.000000,,2013-07-03 07:39:00,
2013-07-03 00:47:00,87.0,48.0,-100.00,ENE,65,10.0,23.0,26,0.00,,,0.15,1.000000,,2013-07-03 07:47:00,
2013-07-03 01:03:00,87.0,48.0,-100.00,ENE,65,10.0,23.0,26,0.00,,,0.15,1.000000,,2013-07-03 08:03:00,
2013-07-03 01:46:00,87.0,46.0,-100.00,NE,41,7.0,23.0,24,0.00,,,0.15,1.000000,,2013-07-03 08:46:00,
2013-07-03 01:56:00,87.0,46.0,-100.00,NE,41,7.0,23.0,24,0.00,,,0.15,1.000000,,2013-07-03 08:56:00,
2013-07-03 02:02:00,87.0,46.0,-100.00,NE,41,7.0,23.0,24,0.00,,,0.15,1.000000,,2013-07-03 09:02:00,
2013-07-03 02:47:00,80.0,54.0,-100.00,NNW,330,2.0,10.0,41,0.00,,,0.14,1.000000,,2013-07-03 09:47:00,
2013-07-03 02:57:00,80.0,54.0,-100.00,NNW,330,2.0,10.0,41,0.00,,,0.14,1.000000,,2013-07-03 09:57:00,
2013-07-03 03:37:00,74.0,57.0,-100.00,NNW,331,3.0,4.0,55,0.00,,,0.14,1.000000,,2013-07-03 10:37:00,
2013-07-03 03:45:00,74.0,57.0,-100.00,NNW,331,3.0,4.0,55,0.00,,,0.14,1.000000,,2013-07-03 10:45:00,
2013-07-03 03:55:00,74.0,57.0,-100.00,NNW,331,3.0,4.0,55,0.00,,,0.14,1.000000,,2013-07-03 10:55:00,
2013-07-03 05:45:00,74.0,54.0,-100.00,NNE,29,3.0,6.0,49,-99.99,,,0.00,1.000000,,2013-07-03 12:45:00,
2013-07-03 05:58:00,74.0,54.0,-100.00,NNE,29,3.0,6.0,49,-99.99,,,0.00,1.000000,,2013-07-03 12:58:00,
2013-07-03 06:03:00,74.0,54.0,-100.00,NNE,29,3.0,6.0,49,-99.99,,,0.00,1.000000,,2013-07-03 13:03:00,
2013-07-03 06:37:00,76.0,57.0,-100.00,NW,320,4.0,7.0,51,0.00,,,0.00,20.000000,,2013-07-03 13:37:00,
2013-07-03 06:47:00,76.0,57.0,-100.00,NW,320,4.0,7.0,51,0.00,,,0.00,20.000000,,2013-07-03 13:47:00,
2013-07-03 06:55:00,76.0,57.0,-100.00,NW,320,4.0,7.0,51,0.00,,,0.00,20.000000,,2013-07-03 13:55:00,
2013-07-03 07:04:00,76.0,57.0,-100.00,NW,320,4.0,7.0,51,0.00,,,0.00,20.000000,,2013-07-03 14:04:00,
2013-07-03 07:47:00,86.0,57.0,-100.00,NNW,333,2.0,5.0,37,0.00,,,0.00,179.000000,,2013-07-03 14:47:00,
2013-07-03 07:54:00,86.0,57.0,-100.00,NNW,333,2.0,5.0,37,0.00,,,0.00,179.000000,,2013-07-03 14:54:00,
2013-07-03 08:02:00,86.0,57.0,-100.00,NNW,333,2.0,5.0,37,0.00,,,0.00,179.000000,,2013-07-03 15:02:00,
2013-07-03 08:38:00,90.0,58.0,-100.00,South,171,3.0,6.0,34,0.00,,,0.00,331.000000,,2013-07-03 15:38:00,
2013-07-03 08:47:00,90.0,58.0,-100.00,South,171,3.0,6.0,34,0.00,,,0.00,331.000000,,2013-07-03 15:47:00,
2013-07-03 08:57:00,90.0,58.0,-100.00,South,171,3.0,6.0,34,0.00,,,0.00,331.000000,,2013-07-03 15:57:00,
2013-07-03 09:03:00,90.0,58.0,-100.00,South,171,3.0,6.0,34,0.00,,,0.00,331.000000,,2013-07-03 16:03:00,
2013-07-03 09:40:00,90.0,53.0,-100.00,NW,306,4.0,7.0,29,0.00,,,0.00,484.000000,,2013-07-03 16:40:00,
2013-07-03 09:46:00,90.0,53.0,-100.00,NW,306,4.0,7.0,29,0.00,,,0.00,484.000000,,2013-07-03 16:46:00,
2013-07-03 09:57:00,90.0,53.0,-100.00,NW,306,4.0,7.0,29,0.00,,,0.00,484.000000,,2013-07-03 16:57:00,
2013-07-03 10:42:00,90.0,53.0,-100.00,WNW,291,4.0,8.0,29,0.00,,,0.00,347.000000,,2013-07-03 17:42:00,
2013-07-03 10:48:00,90.0,53.0,-100.00,WNW,291,4.0,8.0,29,0.00,,,0.00,347.000000,,2013-07-03 17:48:00,
2013-07-03 11:03:00,90.0,53.0,-100.00,WNW,291,4.0,8.0,29,0.00,,,0.00,347.000000,,2013-07-03 18:03:00,
2013-07-03 11:38:00,99.0,55.0,-100.00,SSW,194,4.0,9.0,23,0.00,,,0.00,820.000000,,2013-07-03 18:38:00,
2013-07-03 11:46:00,99.0,55.0,-100.00,SSW,194,4.0,9.0,23,0.00,,,0.00,820.000000,,2013-07-03 18:46:00,
2013-07-03 12:38:00,100.0,52.0,-100.00,SW,232,7.0,11.0,20,0.00,,,0.00,933.000000,,2013-07-03 19:38:00,
2013-07-03 12:48:00,100.0,52.0,-100.00,SW,232,7.0,11.0,20,0.00,,,0.00,933.000000,,2013-07-03 19:48:00,
2013-07-03 13:01:00,100.0,52.0,-100.00,SW,232,7.0,11.0,20,0.00,,,0.00,933.000000,,2013-07-03 20:01:00,
2013-07-03 13:46:00,103.0,53.0,-100.00,West,272,7.0,16.0,19,0.00,,,-99.99,956.000000,,2013-07-03 20:46:00,
2013-07-03 13:55:00,103.0,53.0,-100.00,West,272,7.0,16.0,19,0.00,,,-99.99,956.000000,,2013-07-03 20:55:00,
2013-07-03 14:03:00,103.0,53.0,-100.00,West,272,7.0,16.0,19,0.00,,,-99.99,956.000000,,2013-07-03 21:03:00,
2013-07-03 14:45:00,103.0,51.0,-100.00,West,273,12.0,20.0,18,0.00,,,0.00,924.000000,,2013-07-03 21:45:00,
2013-07-03 14:54:00,103.0,51.0,-100.00,West,273,12.0,20.0,18,0.00,,,0.00,924.000000,,2013-07-03 21:54:00,
2013-07-03 15:01:00,103.0,51.0,-100.00,West,273,12.0,20.0,18,0.00,,,0.00,924.000000,,2013-07-03 22:01:00,
2013-07-03 15:38:00,105.0,51.0,-100.00,West,276,10.0,20.0,17,0.00,,,0.00,841.000000,,2013-07-03 22:38:00,
2013-07-03 15:46:00,105.0,51.0,-100.00,West,276,10.0,20.0,17,0.00,,,0.00,841.000000,,2013-07-03 22:46:00,
2013-07-03 15:55:00,105.0,51.0,-100.00,West,276,10.0,20.0,17,0.00,,,0.00,841.000000,,2013-07-03 22:55:00,
2013-07-03 16:02:00,105.0,51.0,-100.00,West,276,10.0,20.0,17,0.00,,,0.00,841.000000,,2013-07-03 23:02:00,
2013-07-03 16:40:00,105.0,51.0,-100.00,WNW,285,12.0,20.0,17,0.00,,,0.00,701.000000,,2013-07-03 23:40:00,
2013-07-03 16:45:00,105.0,51.0,-100.00,WNW,285,12.0,20.0,17,0.00,,,0.00,701.000000,,2013-07-03 23:45:00,
2013-07-03 16:56:00,105.0,51.0,-100.00,WNW,285,12.0,20.0,17,0.00,,,0.00,701.000000,,2013-07-03 23:56:00,
2013-07-03 17:02:00,105.0,51.0,-100.00,WNW,285,12.0,20.0,17,0.00,,,0.00,701.000000,,2013-07-04 00:02:00,
2013-07-03 17:37:00,104.0,50.0,-100.00,West,279,11.0,24.0,17,0.00,,,0.00,518.000000,,2013-07-04 00:37:00,
2013-07-03 17:50:00,104.0,50.0,-100.00,West,279,11.0,24.0,17,0.00,,,0.00,518.000000,,2013-07-04 00:50:00,
2013-07-03 17:56:00,104.0,50.0,-100.00,West,279,11.0,24.0,17,0.00,,,0.00,518.000000,,2013-07-04 00:56:00,
2013-07-03 18:03:00,104.0,50.0,-100.00,West,279,11.0,24.0,17,0.00,,,0.00,518.000000,,2013-07-04 01:03:00,
2013-07-03 18:39:00,102.0,49.0,-100.00,West,281,10.0,19.0,17,0.00,,,0.00,305.000000,,2013-07-04 01:39:00,
2013-07-03 18:54:00,102.0,49.0,-100.00,West,281,10.0,19.0,17,0.00,,,0.00,305.000000,,2013-07-04 01:54:00,
2013-07-03 19:03:00,102.0,49.0,-100.00,West,281,10.0,19.0,17,0.00,,,0.00,305.000000,,2013-07-04 02:03:00,
2013-07-03 19:49:00,99.0,49.0,-100.00,NNW,332,8.0,16.0,19,0.00,,,0.00,59.000000,,2013-07-04 02:49:00,
2013-07-03 19:56:00,99.0,49.0,-100.00,NNW,332,8.0,16.0,19,0.00,,,0.00,59.000000,,2013-07-04 02:56:00,
2013-07-03 20:03:00,99.0,49.0,-100.00,NNW,332,8.0,16.0,19,0.00,,,0.00,59.000000,,2013-07-04 03:03:00,
2013-07-03 20:36:00,98.0,50.0,-100.00,NNW,330,7.0,15.0,20,0.00,,,0.00,4.000000,,2013-07-04 03:36:00,
2013-07-03 20:46:00,98.0,50.0,-100.00,NNW,330,7.0,15.0,20,0.00,,,0.00,4.000000,,2013-07-04 03:46:00,
2013-07-03 20:56:00,98.0,50.0,-100.00,NNW,330,7.0,15.0,20,0.00,,,0.00,4.000000,,2013-07-04 03:56:00,
2013-07-03 21:01:00,98.0,50.0,-100.00,NNW,330,7.0,15.0,20,0.00,,,0.00,4.000000,,2013-07-04 04:01:00,
2013-07-03 21:33:00,96.0,47.0,-100.00,NW,310,6.0,16.0,19,0.00,,,0.00,1.000000,,2013-07-04 04:33:00,
2013-07-03 21:43:00,96.0,47.0,-100.00,NW,310,6.0,16.0,19,0.00,,,0.00,1.000000,,2013-07-04 04:43:00,
2013-07-03 21:52:00,96.0,47.0,-100.00,NW,310,6.0,16.0,19,0.00,,,0.00,1.000000,,2013-07-04 04:52:00,
2013-07-03 22:01:00,96.0,47.0,-100.00,NW,310,6.0,16.0,19,0.00,,,0.00,1.000000,,2013-07-04 05:01:00,
2013-07-03 22:33:00,96.0,46.0,-100.00,WNW,295,7.0,14.0,18,0.00,,,0.00,1.000000,,2013-07-04 05:33:00,
2013-07-03 22:43:00,96.0,46.0,-100.00,WNW,295,7.0,14.0,18,0.00,,,0.00,1.000000,,2013-07-04 05:43:00,
2013-07-03 22:52:00,96.0,46.0,-100.00,WNW,295,7.0,14.0,18,0.00,,,0.00,1.000000,,2013-07-04 05:52:00,
2013-07-03 23:01:00,96.0,46.0,-100.00,WNW,295,7.0,14.0,18,0.00,,,0.00,1.000000,,2013-07-04 06:01:00,
2013-07-03 23:34:00,89.0,47.0,-100.00,North,355,4.0,11.0,24,0.00,,,0.00,1.000000,,2013-07-04 06:34:00,
2013-07-03 23:43:00,89.0,47.0,-100.00,North,355,4.0,11.0,24,0.00,,,0.00,1.000000,,2013-07-04 06:43:00,
2013-07-03 23:53:00,89.0,47.0,-100.00,North,355,4.0,11.0,24,0.00,,,0.00,1.000000,,2013-07-04 06:53:00,